Main page
METAR-TAF:

METAR-TAF

Airports :

Bordeaux, France

Bordeaux–Mérignac Airport

latitude: 44-50N, longitude: 000-42W, elevation: 49 m

Current weather observation

The report was made 27 minutes ago, at 22:00 UTC
Wind 6 kt from the North/Northwest
Temperature 16°C
Humidity 68%
Pressure 1026 hPa
Visibility 10 km or more
no clouds below 1500 m and no cumulonimbus

METAR: LFBD 192200Z AUTO 34006KT CAVOK 16/10 Q1026 NOSIG

Time: 00:27 (22:27 UTC)

Forecast

The report was made 5 hours and 27 minutes ago, at 17:00 UTC
Forecast valid from 19 at 18 UTC to 20 at 24 UTC
Wind 7 kt from the North
Visibility 10 km or more
no clouds below 1500 m and no cumulonimbus

TAF: LFBD 191700Z 1918/2024 01007KT CAVOK TX26/2015Z TN14/2006Z

Weather observations and forecasts of more than 4000 airports (METAR and TAF reports).

The available stations are represented by yellow and red dots on the map.

Hover mouse over dot to see the name of the station.

Then click to see weather observations and forecasts.

To change the map : click on the green buttons with a black cross to zoom in, on the green button with a dash to zoom out, or on the green arrows for adjacent maps.


METAR-TAF: